Time;durP1;ratioP1;P1;durP2;ratioP2;P2;SDS_P1;SDS_P2;PMS_P1;PMS_P2;Temp;Humidity;BMP_temperature;BMP_pressure;BME280_temperature;BME280_humidity;BME280_pressure;Samples;Min_cycle;Max_cycle;Signal;HPM_P1;HPM_P2
2022/06/02 11:56:26;;;;;;;16.40;14.20;;;;;;;26.76;42.59;100604.98;105817;1292;611719;-91
2022/06/02 12:43:50;;;;;;;16.10;12.20;;;;;;;26.29;41.56;100556.55;103751;1301;613336;-91
2022/06/02 12:47:17;;;;;;;14.50;10.40;;;;;;;26.20;41.76;100550.23;100306;1305;5389325;-90
2022/06/02 12:53:36;;;;;;;15.10;8.90;;;;;;;26.15;41.98;100547.40;93517;1303;71177;-93
2022/06/02 13:41:58;;;;;;;11.50;6.00;;;;;;;26.19;41.66;100537.59;91582;1306;71889;-93
2022/06/02 14:07:59;;;;;;;9.30;5.80;;;;;;;26.23;40.62;100546.36;103989;1310;66495;-92
2022/06/02 14:23:42;;;;;;;8.00;4.50;;;;;;;26.38;40.11;100537.73;90614;1309;68604;-93
2022/06/02 14:43:23;;;;;;;10.80;5.40;;;;;;;26.40;39.37;100527.79;102059;1309;68593;-91
2022/06/02 14:46:29;;;;;;;11.70;5.10;;;;;;;26.40;39.45;100523.09;103194;1310;72824;-89
2022/06/02 14:52:22;;;;;;;6.90;5.00;;;;;;;26.42;39.60;100517.76;103451;1307;72325;-89
2022/06/02 14:58:15;;;;;;;11.60;5.40;;;;;;;26.44;39.48;100516.94;103339;1309;68408;-90
2022/06/02 15:04:17;;;;;;;12.60;6.70;;;;;;;26.40;39.18;100513.94;104022;1313;82004;-89
2022/06/02 15:10:09;;;;;;;9.20;6.30;;;;;;;26.41;39.18;100508.59;104269;1310;65727;-89
2022/06/02 15:15:57;;;;;;;11.50;7.10;;;;;;;26.42;39.04;100510.52;104310;1310;71992;-91
2022/06/02 15:22:33;;;;;;;18.00;11.00;;;;;;;26.49;39.00;100513.08;103411;1310;71448;-89
2022/06/02 15:28:34;;;;;;;19.40;12.30;;;;;;;26.52;39.06;100518.53;103475;1309;66246;-90
2022/06/02 15:34:28;;;;;;;16.40;12.70;;;;;;;26.49;39.19;100516.72;103530;1310;81513;-91
2022/06/02 15:40:36;;;;;;;18.40;12.50;;;;;;;26.45;39.27;100512.63;103513;1310;68263;-89
2022/06/02 15:46:30;;;;;;;19.70;12.20;;;;;;;26.39;39.44;100515.13;103636;1309;71982;-89
2022/06/02 15:52:06;;;;;;;15.30;12.40;;;;;;;26.34;39.65;100516.21;103626;1310;71639;-90
2022/06/02 16:01:26;;;;;;;16.40;11.50;;;;;;;26.22;39.69;100517.09;103372;1310;74635;-89
2022/06/02 16:04:44;;;;;;;17.70;11.40;;;;;;;26.19;39.81;100516.79;103263;1310;81552;-91
2022/06/02 16:11:22;;;;;;;17.70;11.50;;;;;;;26.21;40.21;100517.95;103382;1309;66228;-90
2022/06/02 16:19:55;;;;;;;15.90;11.50;;;;;;;26.18;40.43;100512.68;103432;1309;81962;-89
2022/06/02 16:23:29;;;;;;;15.10;11.30;;;;;;;26.18;40.44;100513.68;103089;1310;72210;-91
2022/06/02 16:29:07;;;;;;;16.00;11.90;;;;;;;26.18;40.31;100514.70;103265;1310;68375;-90
2022/06/02 16:41:37;;;;;;;16.10;11.60;;;;;;;26.16;40.79;100514.63;101896;1310;68304;-90
2022/06/02 16:48:34;;;;;;;16.00;10.60;;;;;;;26.12;40.86;100507.70;103161;1309;73626;31
2022/06/02 16:54:26;;;;;;;14.80;11.40;;;;;;;26.14;40.90;100506.98;103143;1308;72094;-90
2022/06/02 17:00:49;;;;;;;16.20;11.20;;;;;;;26.14;41.22;100513.23;103294;1309;67763;-89
2022/06/02 17:06:50;;;;;;;12.80;10.60;;;;;;;26.09;41.21;100510.17;103129;1309;81821;-90
2022/06/02 17:12:37;;;;;;;12.80;10.30;;;;;;;26.10;41.59;100516.74;103297;1310;68158;-91
2022/06/02 17:18:19;;;;;;;14.10;10.90;;;;;;;26.06;41.35;100523.33;102706;1310;72669;-91
2022/06/02 17:23:56;;;;;;;12.60;9.80;;;;;;;26.07;41.51;100523.31;102690;1309;72164;-90
2022/06/02 17:29:44;;;;;;;14.40;10.50;;;;;;;26.05;41.58;100521.65;102702;1311;68407;-91
2022/06/02 17:35:47;;;;;;;13.10;10.90;;;;;;;26.05;41.82;100520.62;102860;1310;80694;-91
2022/06/02 17:38:55;;;;;;;13.10;10.50;;;;;;;26.04;41.80;100523.27;102779;1313;71848;-91
2022/06/02 17:45:08;;;;;;;15.70;13.30;;;;;;;25.99;41.99;100522.71;103131;1311;68326;-91
2022/06/02 17:50:57;;;;;;;16.70;13.40;;;;;;;26.04;41.95;100526.40;102762;1311;81430;-91
2022/06/02 18:02:54;;;;;;;18.50;12.80;;;;;;;26.04;42.11;100542.34;103050;1313;72516;31
2022/06/02 18:09:17;;;;;;;14.60;12.70;;;;;;;25.97;42.39;100547.59;102913;1310;72321;31
2022/06/02 18:15:11;;;;;;;13.60;12.00;;;;;;;26.00;42.26;100550.05;102823;1310;68334;-91
2022/06/02 18:21:26;;;;;;;16.30;12.30;;;;;;;25.95;42.39;100553.17;103291;1310;82057;-91
2022/06/02 18:27:54;;;;;;;20.90;17.70;;;;;;;26.01;42.45;100560.45;103114;1310;68467;-91
2022/06/02 18:37:26;;;;;;;20.10;17.10;;;;;;;25.98;42.63;100567.31;103213;1310;82023;-90
2022/06/02 18:43:31;;;;;;;19.70;15.70;;;;;;;25.99;42.63;100577.52;102890;1309;68209;-91
2022/06/02 18:49:39;;;;;;;19.70;15.10;;;;;;;25.96;42.46;100586.22;103023;1310;73297;-91
2022/06/02 18:58:19;;;;;;;20.90;15.60;;;;;;;25.91;42.68;100587.64;102762;1310;68494;-91
2022/06/02 19:04:34;;;;;;;19.10;14.90;;;;;;;25.84;43.03;100587.11;102978;1310;73668;-91
2022/06/02 19:16:20;;;;;;;18.80;15.00;;;;;;;25.92;42.97;100606.13;102790;1309;68620;-90
2022/06/02 19:22:17;;;;;;;19.50;15.30;;;;;;;25.92;42.92;100599.54;103251;1310;81989;-90
2022/06/02 19:28:22;;;;;;;18.20;14.40;;;;;;;25.95;42.85;100607.00;102733;1310;68458;-91
2022/06/02 19:34:06;;;;;;;18.60;15.20;;;;;;;25.90;43.06;100607.40;103154;1310;72366;-90
2022/06/02 19:39:56;;;;;;;20.30;14.50;;;;;;;25.93;43.25;100605.39;102813;1310;72076;-91
2022/06/02 19:42:46;;;;;;;19.00;14.70;;;;;;;25.88;43.27;100608.27;103135;1310;66874;-91
2022/06/02 19:45:50;;;;;;;18.40;14.00;;;;;;;25.88;43.27;100608.52;103149;1309;68317;-91
2022/06/02 19:52:21;;;;;;;17.00;13.20;;;;;;;25.92;43.37;100609.08;103089;1310;82096;-89
2022/06/02 19:58:22;;;;;;;16.60;12.90;;;;;;;25.88;43.41;100606.73;103207;1310;68433;-91
2022/06/02 20:04:15;;;;;;;16.90;12.80;;;;;;;25.92;43.49;100600.11;102999;1310;74740;-91
2022/06/02 20:10:06;;;;;;;15.30;11.80;;;;;;;25.85;43.61;100603.74;103178;1310;74549;-90
2022/06/02 20:16:08;;;;;;;14.20;12.20;;;;;;;25.91;43.55;100605.23;102948;1310;68316;-91
2022/06/02 20:19:14;;;;;;;15.00;12.00;;;;;;;25.87;43.72;100607.67;103271;1310;72598;-90
2022/06/02 20:22:20;;;;;;;17.30;12.80;;;;;;;25.85;43.92;100606.48;102949;1310;82049;-91
2022/06/02 20:28:05;;;;;;;14.90;11.60;;;;;;;25.90;43.86;100607.83;103146;1310;68170;-89
2022/06/02 20:33:46;;;;;;;15.10;11.30;;;;;;;25.84;43.92;100615.88;102806;1308;75248;-90
2022/06/02 20:37:05;;;;;;;16.10;11.10;;;;;;;25.87;44.07;100616.34;102814;1310;82014;-90
2022/06/02 20:43:25;;;;;;;16.20;11.40;;;;;;;25.90;43.86;100616.06;102865;1310;68315;-91
2022/06/02 20:49:13;;;;;;;15.90;11.20;;;;;;;25.87;44.13;100621.84;103060;1309;73464;-90
2022/06/02 20:55:10;;;;;;;16.30;11.30;;;;;;;25.91;44.15;100627.59;102881;1313;72236;-91
2022/06/02 21:01:10;;;;;;;15.70;10.50;;;;;;;25.88;44.32;100630.02;102940;1310;68289;-91
2022/06/02 21:07:11;;;;;;;12.00;10.00;;;;;;;25.93;44.39;100632.40;103290;1310;82162;-90
2022/06/02 21:13:18;;;;;;;14.70;9.70;;;;;;;25.90;44.52;100644.98;103045;1310;68286;-89
2022/06/02 21:18:57;;;;;;;14.70;10.20;;;;;;;26.00;44.73;100647.56;103044;1313;73961;-90
2022/06/02 21:22:13;;;;;;;13.10;9.50;;;;;;;25.94;44.75;100649.66;103117;1310;81898;-91
2022/06/02 21:25:25;;;;;;;14.20;10.10;;;;;;;25.92;44.94;100649.44;102913;1313;72201;-91
2022/06/02 21:31:03;;;;;;;15.90;9.90;;;;;;;26.00;44.95;100657.23;103113;1310;68254;-90
2022/06/02 21:36:37;;;;;;;15.30;9.40;;;;;;;25.92;45.22;100653.20;103209;1310;81822;-91
2022/06/02 21:42:15;;;;;;;12.10;9.60;;;;;;;26.01;45.27;100649.98;103325;1310;68308;-89
2022/06/02 21:48:11;;;;;;;11.40;8.50;;;;;;;26.03;45.46;100649.60;103094;1310;73586;-90
2022/06/02 21:53:55;;;;;;;17.20;9.40;;;;;;;26.02;45.53;100651.32;102966;1310;72159;-89
2022/06/02 21:59:36;;;;;;;11.40;9.30;;;;;;;25.94;45.51;100654.50;103065;1310;68268;-91
2022/06/02 22:05:33;;;;;;;14.20;8.40;;;;;;;25.83;45.74;100661.98;103191;1310;82039;-91
2022/06/02 22:11:27;;;;;;;12.00;8.30;;;;;;;25.88;45.92;100663.33;103045;1311;68415;-91
2022/06/02 22:20:21;;;;;;;11.40;8.70;;;;;;;25.88;46.02;100661.27;88549;1327;83020;-89
2022/06/02 22:23:28;;;;;;;11.20;8.70;;;;;;;25.87;46.23;100658.86;102998;1310;72047;-91
2022/06/02 22:26:34;;;;;;;11.70;8.50;;;;;;;25.93;46.16;100661.33;103142;1310;66562;-90
2022/06/02 22:32:30;;;;;;;10.60;8.60;;;;;;;25.88;46.15;100668.33;103092;1310;72470;-91
2022/06/02 22:38:18;;;;;;;10.70;7.50;;;;;;;25.91;46.49;100665.17;103187;1310;72157;-90
2022/06/02 22:44:04;;;;;;;11.00;7.80;;;;;;;25.88;46.20;100661.83;103013;1309;68363;-91
2022/06/02 22:50:10;;;;;;;11.70;7.80;;;;;;;25.89;46.22;100671.55;102802;1308;81913;31
2022/06/02 22:56:11;;;;;;;12.70;7.70;;;;;;;25.87;46.10;100670.26;102855;1310;68431;-91
2022/06/02 23:02:05;;;;;;;11.80;7.80;;;;;;;25.88;46.12;100674.36;103215;1311;75385;-89
2022/06/02 23:05:15;;;;;;;9.80;7.30;;;;;;;25.90;46.37;100671.33;103081;1310;81986;-91
2022/06/02 23:11:56;;;;;;;10.80;7.50;;;;;;;25.81;46.27;100683.80;103019;1309;71041;-90
2022/06/02 23:18:00;;;;;;;10.00;7.20;;;;;;;25.86;46.24;100680.01;103149;1309;73601;-90
2022/06/02 23:23:50;;;;;;;9.00;6.60;;;;;;;25.80;46.26;100677.59;103115;1310;72368;-91
2022/06/02 23:30:01;;;;;;;10.20;7.50;;;;;;;25.85;46.38;100680.97;103247;1310;68559;-91
2022/06/02 23:35:57;;;;;;;12.20;7.50;;;;;;;25.78;46.41;100688.54;103004;1310;81907;-90
2022/06/02 23:48:39;;;;;;;8.30;7.00;;;;;;;25.76;46.62;100688.11;103139;1310;72483;-90
2022/06/02 23:54:28;;;;;;;11.20;7.10;;;;;;;25.79;46.85;100691.70;103081;1313;71817;-90
